createdAt,value
2017-12-02T00:00:45.155Z,178.30
2017-12-02T00:01:45.132Z,117.20
2017-12-02T00:02:45.108Z,187.40
2017-12-02T00:03:45.094Z,118.90
2017-12-02T00:04:45.067Z,158.40
2017-12-02T00:05:45.034Z,155.10
2017-12-02T00:06:45.013Z,198.50
2017-12-02T00:07:45.001Z,236.20
2017-12-02T00:08:44.959Z,204.50
2017-12-02T00:09:44.948Z,183.80
2017-12-02T00:10:44.930Z,151.70
2017-12-02T00:11:44.890Z,175.30
2017-12-02T00:12:44.873Z,183.80
2017-12-02T00:13:44.842Z,171.40
2017-12-02T00:14:44.826Z,172.70
2017-12-02T00:15:44.794Z,163.00
2017-12-02T00:16:44.776Z,239.20
2017-12-02T00:17:44.750Z,242.70
2017-12-02T00:18:44.724Z,199.70
2017-12-02T00:19:44.703Z,168.80
2017-12-02T00:20:44.682Z,162.00
2017-12-02T00:21:44.657Z,132.30
2017-12-02T00:22:44.626Z,129.00
2017-12-02T00:23:44.616Z,141.70
2017-12-02T00:24:44.582Z,134.20
2017-12-02T00:25:44.559Z,125.50
2017-12-02T00:26:44.536Z,148.90
2017-12-02T00:27:44.523Z,170.80
2017-12-02T00:28:44.486Z,118.70
2017-12-02T00:29:44.457Z,124.10
2017-12-02T00:30:44.441Z,155.20
2017-12-02T00:31:44.412Z,133.10
2017-12-02T00:32:44.397Z,102.70
2017-12-02T00:33:44.369Z,122.50
2017-12-02T00:34:44.344Z,133.40
2017-12-02T00:35:44.322Z,161.80
2017-12-02T00:36:44.299Z,160.20
2017-12-02T00:37:44.273Z,150.60
2017-12-02T00:38:44.250Z,115.90
2017-12-02T00:39:44.232Z,128.80
2017-12-02T00:40:44.206Z,139.40
2017-12-02T00:41:44.232Z,110.90
2017-12-02T00:42:44.157Z,129.20
2017-12-02T00:43:44.130Z,111.90
2017-12-02T00:44:44.118Z,111.40
2017-12-02T00:45:44.082Z,105.40
2017-12-02T00:46:44.059Z,92.50
2017-12-02T00:47:44.033Z,99.20
2017-12-02T00:48:44.013Z,110.90
2017-12-02T00:49:43.986Z,106.70
2017-12-02T00:50:43.968Z,89.50
2017-12-02T00:51:43.939Z,97.20
2017-12-02T00:52:43.915Z,108.10
2017-12-02T00:53:43.905Z,106.20
2017-12-02T00:54:43.868Z,110.00
2017-12-02T00:55:43.846Z,106.30
2017-12-02T00:56:43.828Z,102.00
2017-12-02T00:57:43.796Z,110.40
2017-12-02T00:58:43.776Z,139.70
2017-12-02T00:59:43.754Z,126.60
2017-12-02T01:00:43.727Z,112.20
2017-12-02T01:01:43.706Z,103.10
2017-12-02T01:02:43.686Z,138.40
2017-12-02T01:03:43.657Z,132.90
2017-12-02T01:04:43.640Z,107.60
2017-12-02T01:05:43.613Z,104.40
2017-12-02T01:06:43.587Z,123.60
2017-12-02T01:07:43.564Z,134.60
2017-12-02T01:08:43.536Z,155.90
2017-12-02T01:09:43.517Z,155.50
2017-12-02T01:10:43.500Z,132.40
2017-12-02T01:11:43.465Z,138.60
2017-12-02T01:12:43.445Z,168.30
2017-12-02T01:13:43.420Z,131.30
2017-12-02T01:14:43.395Z,105.20
2017-12-02T01:15:43.372Z,101.70
2017-12-02T01:16:43.353Z,128.00
2017-12-02T01:17:43.326Z,115.70
2017-12-02T01:18:43.303Z,119.10
2017-12-02T01:19:43.278Z,112.50
2017-12-02T01:20:43.255Z,111.60
2017-12-02T01:21:43.247Z,108.00
2017-12-02T01:22:43.206Z,98.20
2017-12-02T01:23:43.184Z,126.10
2017-12-02T01:24:43.160Z,110.80
2017-12-02T01:25:43.139Z,90.40
2017-12-02T01:26:43.111Z,88.60
2017-12-02T01:27:43.096Z,93.50
2017-12-02T01:28:43.070Z,99.30
2017-12-02T01:29:43.048Z,91.70
2017-12-02T01:30:43.024Z,96.40
2017-12-02T01:31:43.002Z,100.90
2017-12-02T01:32:42.970Z,80.30
2017-12-02T01:33:42.950Z,93.90
2017-12-02T01:34:42.927Z,85.90
2017-12-02T01:35:42.902Z,81.20
2017-12-02T01:36:42.885Z,85.70
2017-12-02T01:37:42.861Z,115.90
2017-12-02T01:38:42.834Z,112.30
2017-12-02T01:39:42.806Z,131.50
2017-12-02T01:40:42.790Z,106.10
2017-12-02T01:41:42.762Z,99.70
2017-12-02T01:42:42.737Z,100.60
2017-12-02T01:43:42.718Z,98.90
2017-12-02T01:44:42.692Z,93.00
2017-12-02T01:45:42.667Z,86.90
2017-12-02T01:46:42.649Z,124.00
2017-12-02T01:47:42.619Z,83.90
2017-12-02T01:48:42.598Z,72.60
2017-12-02T01:49:42.575Z,85.40
2017-12-02T01:50:42.548Z,81.60
2017-12-02T01:51:42.531Z,77.30
2017-12-02T01:52:42.500Z,76.20
2017-12-02T01:53:42.482Z,84.80
2017-12-02T01:54:42.508Z,93.70
2017-12-02T01:55:42.432Z,87.60
2017-12-02T01:56:42.406Z,83.30
2017-12-02T01:57:42.388Z,76.40
2017-12-02T01:58:42.363Z,105.40
2017-12-02T01:59:42.343Z,113.10
2017-12-02T02:00:42.312Z,129.50
2017-12-02T02:01:42.292Z,106.70
2017-12-02T02:02:42.270Z,117.20
2017-12-02T02:03:42.242Z,110.10
2017-12-02T02:04:42.220Z,98.40
2017-12-02T02:05:42.201Z,80.70
2017-12-02T02:06:42.172Z,97.00
2017-12-02T02:07:42.150Z,81.40
2017-12-02T02:08:42.127Z,84.90
2017-12-02T02:09:42.103Z,89.60
2017-12-02T02:10:42.079Z,88.40
2017-12-02T02:11:42.057Z,81.90
2017-12-02T02:12:42.046Z,121.70
2017-12-02T02:13:42.009Z,120.40
2017-12-02T02:14:41.985Z,109.90
2017-12-02T02:15:41.970Z,84.70
2017-12-02T02:16:41.946Z,93.40
2017-12-02T02:17:41.915Z,133.40
2017-12-02T02:18:41.894Z,127.20
2017-12-02T02:19:41.874Z,127.70
2017-12-02T02:20:41.844Z,112.30
2017-12-02T02:21:41.827Z,112.00
2017-12-02T02:22:41.803Z,109.90
2017-12-02T02:23:41.786Z,100.40
2017-12-02T02:24:41.755Z,93.80
2017-12-02T02:25:41.731Z,97.90
2017-12-02T02:26:41.709Z,103.20
2017-12-02T02:27:41.683Z,103.60
2017-12-02T02:28:41.667Z,89.50
2017-12-02T02:29:41.636Z,95.60
2017-12-02T02:30:41.613Z,105.60
2017-12-02T02:31:41.588Z,78.50
2017-12-02T02:32:41.569Z,98.40
2017-12-02T02:33:41.550Z,113.60
2017-12-02T02:34:41.519Z,122.40
2017-12-02T02:35:41.501Z,108.00
2017-12-02T02:36:41.471Z,101.80
2017-12-02T02:37:41.453Z,105.10
2017-12-02T02:38:41.424Z,98.20
2017-12-02T02:39:41.402Z,99.50
2017-12-02T02:40:41.380Z,81.70
2017-12-02T02:41:41.354Z,79.40
2017-12-02T02:42:41.341Z,80.10
2017-12-02T02:43:41.310Z,77.30
2017-12-02T02:44:41.285Z,82.20
2017-12-02T02:45:41.264Z,75.60
2017-12-02T02:46:41.241Z,75.20
2017-12-02T02:47:41.223Z,84.20
2017-12-02T02:48:41.195Z,90.60
2017-12-02T02:49:41.169Z,73.90
2017-12-02T02:50:41.145Z,73.80
2017-12-02T02:51:41.121Z,63.00
2017-12-02T02:52:41.117Z,75.40
2017-12-02T02:53:41.075Z,82.60
2017-12-02T02:54:41.053Z,72.50
2017-12-02T02:55:41.028Z,69.90
2017-12-02T02:56:41.008Z,78.20
2017-12-02T02:57:40.988Z,75.90
2017-12-02T02:58:40.962Z,75.10
2017-12-02T02:59:40.938Z,92.00
2017-12-02T03:00:40.914Z,77.40
2017-12-02T03:01:40.892Z,76.00
2017-12-02T03:02:40.866Z,84.80
2017-12-02T03:03:40.843Z,111.70
2017-12-02T03:04:40.819Z,89.10
2017-12-02T03:05:40.797Z,83.20
2017-12-02T03:06:40.783Z,77.70
2017-12-02T03:07:40.754Z,101.90
2017-12-02T03:08:40.727Z,95.40
2017-12-02T03:09:40.705Z,109.10
2017-12-02T03:10:40.685Z,104.30
2017-12-02T03:11:40.669Z,113.40
2017-12-02T03:12:40.635Z,114.70
2017-12-02T03:13:40.617Z,110.50
2017-12-02T03:14:40.593Z,150.90
2017-12-02T03:15:40.568Z,115.50
2017-12-02T03:16:40.544Z,108.60
2017-12-02T03:17:40.517Z,117.40
2017-12-02T03:18:40.494Z,101.50
2017-12-02T03:19:40.472Z,100.40
2017-12-02T03:20:40.449Z,82.90
2017-12-02T03:21:40.423Z,145.60
2017-12-02T03:22:40.402Z,141.60
2017-12-02T03:23:40.381Z,171.90
2017-12-02T03:24:40.354Z,111.00
2017-12-02T03:25:40.331Z,125.80
2017-12-02T03:26:40.309Z,88.00
2017-12-02T03:27:40.285Z,93.50
2017-12-02T03:28:40.266Z,85.70
2017-12-02T03:29:40.239Z,94.90
2017-12-02T03:30:40.218Z,93.50
2017-12-02T03:31:40.193Z,86.00
2017-12-02T03:32:40.169Z,75.30
2017-12-02T03:33:40.145Z,70.70
2017-12-02T03:34:40.121Z,66.90
2017-12-02T03:35:40.105Z,67.30
2017-12-02T03:36:40.075Z,66.10
2017-12-02T03:37:40.054Z,70.30
2017-12-02T03:38:40.039Z,68.10
2017-12-02T03:39:40.006Z,66.10
2017-12-02T03:40:39.981Z,84.80
2017-12-02T03:41:39.959Z,97.70
2017-12-02T03:42:39.944Z,81.20
2017-12-02T03:43:39.912Z,70.70
2017-12-02T03:44:39.891Z,68.30
2017-12-02T03:45:39.865Z,74.80
2017-12-02T03:46:39.845Z,74.60
2017-12-02T03:47:39.819Z,66.60
2017-12-02T03:48:39.797Z,76.70
2017-12-02T03:49:39.771Z,72.80
2017-12-02T03:50:39.749Z,87.70
2017-12-02T03:51:39.729Z,75.20
2017-12-02T03:52:39.705Z,75.10
2017-12-02T03:53:39.683Z,76.50
2017-12-02T03:54:39.662Z,64.70
2017-12-02T03:55:39.638Z,77.90
2017-12-02T03:56:39.613Z,84.60
2017-12-02T03:57:39.588Z,68.80
2017-12-02T03:58:39.566Z,79.60
2017-12-02T03:59:39.538Z,68.30
2017-12-02T04:00:39.517Z,81.80
2017-12-02T04:01:39.503Z,90.60
2017-12-02T04:02:39.470Z,85.70
2017-12-02T04:03:39.454Z,88.30
2017-12-02T04:04:39.423Z,88.10
2017-12-02T04:05:39.401Z,121.40
2017-12-02T04:06:39.380Z,155.80
2017-12-02T04:07:39.354Z,135.20
2017-12-02T04:08:39.332Z,121.90
2017-12-02T04:09:39.309Z,126.20
2017-12-02T04:10:39.284Z,111.30
2017-12-02T04:11:39.264Z,125.20
2017-12-02T04:12:39.240Z,132.00
2017-12-02T04:13:39.214Z,96.20
2017-12-02T04:14:39.193Z,81.50
2017-12-02T04:15:39.169Z,71.60
2017-12-02T04:16:39.145Z,65.90
2017-12-02T04:17:39.122Z,65.50
2017-12-02T04:18:39.098Z,61.60
2017-12-02T04:19:39.075Z,80.10
2017-12-02T04:20:39.051Z,70.10
2017-12-02T04:21:39.029Z,66.20
2017-12-02T04:22:39.002Z,69.90
2017-12-02T04:23:38.978Z,68.80
2017-12-02T04:24:38.954Z,80.80
2017-12-02T04:25:38.934Z,79.10
2017-12-02T04:26:38.915Z,66.60
2017-12-02T04:27:38.885Z,74.50
2017-12-02T04:28:38.864Z,84.70
2017-12-02T04:29:38.840Z,80.20
2017-12-02T04:30:38.821Z,76.10
2017-12-02T04:31:38.793Z,62.80
2017-12-02T04:32:38.773Z,68.60
2017-12-02T04:33:38.748Z,64.70
2017-12-02T04:34:38.723Z,74.50
2017-12-02T04:35:38.700Z,71.10
2017-12-02T04:36:38.677Z,55.50
2017-12-02T04:37:38.662Z,58.50
2017-12-02T04:38:38.636Z,55.10
2017-12-02T04:39:38.606Z,57.10
2017-12-02T04:40:38.585Z,54.50
2017-12-02T04:41:38.564Z,53.30
2017-12-02T04:42:38.535Z,57.20
2017-12-02T04:43:38.511Z,54.80
2017-12-02T04:44:38.493Z,67.60
2017-12-02T04:45:38.470Z,61.00
2017-12-02T04:46:38.444Z,61.50
2017-12-02T04:47:38.423Z,67.30
2017-12-02T04:48:38.407Z,58.80
2017-12-02T04:49:38.374Z,49.30
2017-12-02T04:50:38.356Z,49.60
2017-12-02T04:51:38.329Z,52.90
2017-12-02T04:52:38.306Z,57.70
2017-12-02T04:53:38.281Z,51.30
2017-12-02T04:54:38.255Z,61.30
2017-12-02T04:55:38.233Z,85.70
2017-12-02T04:56:38.209Z,64.70
2017-12-02T04:57:38.185Z,59.70
2017-12-02T04:58:38.164Z,53.50
2017-12-02T04:59:38.138Z,63.80
2017-12-02T05:00:38.115Z,67.00
2017-12-02T05:01:38.094Z,71.00
2017-12-02T05:02:38.074Z,62.50
2017-12-02T05:03:38.045Z,70.50
2017-12-02T05:04:38.021Z,65.10
2017-12-02T05:05:38.001Z,76.90
2017-12-02T05:06:37.979Z,64.80
2017-12-02T05:07:37.955Z,63.90
2017-12-02T05:08:37.932Z,57.30
2017-12-02T05:09:37.907Z,75.20
2017-12-02T05:10:37.885Z,62.40
2017-12-02T05:11:37.860Z,80.70
2017-12-02T05:12:37.839Z,61.90
2017-12-02T05:13:37.811Z,59.20
2017-12-02T05:14:37.789Z,56.40
2017-12-02T05:15:37.771Z,61.20
2017-12-02T05:16:37.742Z,85.90
2017-12-02T05:17:37.725Z,63.40
2017-12-02T05:18:37.699Z,62.40
2017-12-02T05:19:37.675Z,62.60
2017-12-02T05:20:37.654Z,58.80
2017-12-02T05:21:37.630Z,49.20
2017-12-02T05:22:37.604Z,74.50
2017-12-02T05:23:37.584Z,56.10
2017-12-02T05:24:37.556Z,50.90
2017-12-02T05:25:37.533Z,56.80
2017-12-02T05:26:37.515Z,56.60
2017-12-02T05:27:37.482Z,61.60
2017-12-02T05:28:37.463Z,52.90
2017-12-02T05:29:37.437Z,58.20
2017-12-02T05:30:37.422Z,50.60
2017-12-02T05:31:37.391Z,56.10
2017-12-02T05:32:37.367Z,62.10
2017-12-02T05:33:37.348Z,58.40
2017-12-02T05:34:37.324Z,63.00
2017-12-02T05:35:37.298Z,96.20
2017-12-02T05:36:37.273Z,86.90
2017-12-02T05:37:37.255Z,69.30
2017-12-02T05:38:37.237Z,75.40
2017-12-02T05:39:37.205Z,64.50
2017-12-02T05:40:37.184Z,84.10
2017-12-02T05:41:37.157Z,80.40
2017-12-02T05:42:37.135Z,75.50
2017-12-02T05:43:37.114Z,80.40
2017-12-02T05:44:37.088Z,85.80
2017-12-02T05:45:37.064Z,80.50
2017-12-02T05:46:37.052Z,110.40
2017-12-02T05:47:37.018Z,86.40
2017-12-02T05:48:36.994Z,77.80
2017-12-02T05:49:36.972Z,75.00
2017-12-02T05:50:36.948Z,86.30
2017-12-02T05:51:36.924Z,70.30
2017-12-02T05:52:36.900Z,87.00
2017-12-02T05:53:37.132Z,112.10
2017-12-02T05:54:36.853Z,94.70
2017-12-02T05:55:36.833Z,90.80
2017-12-02T05:56:36.804Z,93.80
2017-12-02T05:57:36.782Z,120.90
2017-12-02T05:58:36.766Z,127.70
2017-12-02T05:59:36.737Z,134.50
2017-12-02T06:00:36.714Z,123.40
2017-12-02T06:01:36.695Z,91.60
2017-12-02T06:02:36.664Z,92.00
2017-12-02T06:03:36.644Z,91.00
2017-12-02T06:04:36.629Z,90.80
2017-12-02T06:05:36.601Z,68.60
2017-12-02T06:06:36.574Z,61.80
2017-12-02T06:07:36.551Z,79.80
2017-12-02T06:08:36.526Z,78.80
2017-12-02T06:09:36.503Z,77.70
2017-12-02T06:10:36.479Z,64.80
2017-12-02T06:11:36.454Z,62.50
2017-12-02T06:12:36.432Z,74.20
2017-12-02T06:13:36.412Z,79.00
2017-12-02T06:14:36.385Z,99.80
2017-12-02T06:15:36.361Z,80.50
2017-12-02T06:16:36.333Z,63.70
2017-12-02T06:17:36.313Z,60.50
2017-12-02T06:18:36.288Z,67.70
2017-12-02T06:19:36.265Z,115.00
2017-12-02T06:20:36.245Z,88.30
2017-12-02T06:21:36.218Z,65.50
2017-12-02T06:22:36.195Z,59.60
2017-12-02T06:23:36.171Z,74.60
2017-12-02T06:24:36.146Z,73.20
2017-12-02T06:25:36.128Z,99.00
2017-12-02T06:26:36.103Z,69.30
2017-12-02T06:27:36.085Z,60.80
2017-12-02T06:28:36.051Z,73.70
2017-12-02T06:29:36.034Z,70.30
2017-12-02T06:30:36.008Z,69.30
2017-12-02T06:31:35.984Z,85.30
2017-12-02T06:32:35.963Z,60.70
2017-12-02T06:33:35.937Z,80.00
2017-12-02T06:34:35.916Z,73.70
2017-12-02T06:35:35.893Z,63.10
2017-12-02T06:36:35.865Z,56.30
2017-12-02T06:37:35.845Z,50.90
2017-12-02T06:38:35.822Z,65.30
2017-12-02T06:39:35.795Z,72.90
2017-12-02T06:40:35.773Z,50.80
2017-12-02T06:41:35.750Z,58.80
2017-12-02T06:42:35.725Z,58.90
2017-12-02T06:43:35.711Z,53.40
2017-12-02T06:44:35.684Z,63.50
2017-12-02T06:45:35.654Z,61.70
2017-12-02T06:46:35.629Z,63.50
2017-12-02T06:47:35.604Z,56.80
2017-12-02T06:48:35.579Z,67.10
2017-12-02T06:49:35.557Z,55.50
2017-12-02T06:50:35.535Z,54.50
2017-12-02T06:51:35.512Z,52.70
2017-12-02T06:52:35.489Z,56.90
2017-12-02T06:53:35.464Z,47.40
2017-12-02T06:54:35.442Z,49.60
2017-12-02T06:55:35.414Z,48.40
2017-12-02T06:56:35.402Z,52.00
2017-12-02T06:57:35.373Z,47.40
2017-12-02T06:58:35.352Z,46.80
2017-12-02T06:59:35.320Z,45.00
2017-12-02T07:00:35.298Z,57.40
2017-12-02T07:01:35.280Z,50.70
2017-12-02T07:02:35.255Z,57.90
2017-12-02T07:03:35.226Z,59.70
2017-12-02T07:04:35.209Z,79.50
2017-12-02T07:05:35.189Z,77.40
2017-12-02T07:06:35.162Z,92.60
2017-12-02T07:07:35.144Z,80.10
2017-12-02T07:08:35.115Z,72.30
2017-12-02T07:09:35.088Z,83.00
2017-12-02T07:10:35.067Z,76.10
2017-12-02T07:11:35.043Z,56.90
2017-12-02T07:12:35.019Z,55.90
2017-12-02T07:13:34.999Z,64.80
2017-12-02T07:14:34.971Z,59.80
2017-12-02T07:15:34.945Z,58.90
2017-12-02T07:16:34.926Z,59.70
2017-12-02T07:17:34.908Z,63.00
2017-12-02T07:18:34.875Z,64.30
2017-12-02T07:19:34.857Z,55.30
2017-12-02T07:20:34.828Z,63.90
2017-12-02T07:21:34.807Z,45.60
2017-12-02T07:22:34.783Z,57.60
2017-12-02T07:23:34.756Z,59.30
2017-12-02T07:24:34.734Z,48.20
2017-12-02T07:25:34.712Z,46.80
2017-12-02T07:26:34.689Z,47.60
2017-12-02T07:27:34.662Z,49.00
2017-12-02T07:28:34.644Z,50.00
2017-12-02T07:29:34.616Z,50.70
2017-12-02T07:30:34.595Z,54.70
2017-12-02T07:31:34.579Z,51.60
2017-12-02T07:32:34.544Z,49.90
2017-12-02T07:33:34.525Z,67.00
2017-12-02T07:34:34.504Z,97.10
2017-12-02T07:35:34.475Z,95.20
2017-12-02T07:36:34.453Z,99.70
2017-12-02T07:37:34.438Z,77.70
2017-12-02T07:38:34.406Z,105.60
2017-12-02T07:39:34.384Z,92.10
2017-12-02T07:40:34.362Z,82.10
2017-12-02T07:41:34.336Z,64.00
2017-12-02T07:42:34.321Z,61.30
2017-12-02T07:43:34.289Z,62.10
2017-12-02T07:44:34.263Z,84.00
2017-12-02T07:45:34.245Z,66.30
2017-12-02T07:46:34.219Z,59.60
2017-12-02T07:47:34.195Z,82.00
2017-12-02T07:48:34.176Z,69.40
2017-12-02T07:49:34.146Z,77.00
2017-12-02T07:50:34.124Z,62.60
2017-12-02T07:51:34.101Z,64.00
2017-12-02T07:52:34.076Z,56.50
2017-12-02T07:53:34.053Z,58.80
2017-12-02T07:54:34.031Z,54.50
2017-12-02T07:55:34.006Z,59.70
2017-12-02T07:56:33.982Z,61.40
2017-12-02T07:57:33.970Z,74.20
2017-12-02T07:58:33.945Z,67.40
2017-12-02T07:59:33.905Z,84.30
2017-12-02T08:00:33.886Z,61.60
2017-12-02T08:01:33.898Z,60.50
2017-12-02T08:02:33.849Z,79.70
2017-12-02T08:03:33.822Z,71.40
2017-12-02T08:04:33.791Z,99.00
2017-12-02T08:05:33.765Z,92.10
2017-12-02T08:06:33.759Z,104.70
2017-12-02T08:07:33.718Z,102.30
2017-12-02T08:08:33.701Z,99.50
2017-12-02T08:09:33.682Z,92.80
2017-12-02T08:10:33.656Z,74.30
2017-12-02T08:11:33.625Z,66.90
2017-12-02T08:12:33.607Z,84.20
2017-12-02T08:13:33.580Z,121.00
2017-12-02T08:14:33.556Z,105.20
2017-12-02T08:15:33.535Z,123.70
2017-12-02T08:16:33.508Z,101.60
2017-12-02T08:17:33.488Z,158.90
2017-12-02T08:18:33.482Z,141.00
2017-12-02T08:19:33.437Z,122.30
2017-12-02T08:20:33.422Z,117.70
2017-12-02T08:21:33.392Z,78.40
2017-12-02T08:22:33.376Z,64.10
2017-12-02T08:23:33.347Z,72.70
2017-12-02T08:24:33.321Z,63.20
2017-12-02T08:25:33.298Z,63.50
2017-12-02T08:26:33.282Z,68.60
2017-12-02T08:27:33.246Z,61.90
2017-12-02T08:28:33.226Z,73.10
2017-12-02T08:29:33.202Z,70.90
2017-12-02T08:30:33.178Z,75.00
2017-12-02T08:31:33.154Z,60.00
2017-12-02T08:32:33.129Z,102.40
2017-12-02T08:33:33.109Z,81.50
2017-12-02T08:34:33.084Z,70.80
2017-12-02T08:35:33.059Z,67.50
2017-12-02T08:36:33.036Z,70.70
2017-12-02T08:37:33.014Z,67.70
2017-12-02T08:38:32.987Z,59.40
2017-12-02T08:39:32.966Z,54.90
2017-12-02T08:40:32.948Z,61.20
2017-12-02T08:41:32.916Z,72.80
2017-12-02T08:42:32.894Z,97.30
2017-12-02T08:43:32.868Z,67.50
2017-12-02T08:44:32.849Z,59.10
2017-12-02T08:45:32.827Z,61.50
2017-12-02T08:46:32.796Z,65.00
2017-12-02T08:47:32.782Z,86.40
2017-12-02T08:48:32.749Z,62.10
2017-12-02T08:49:32.728Z,66.00
2017-12-02T08:50:32.710Z,53.10
2017-12-02T08:51:32.678Z,59.70
2017-12-02T08:52:32.655Z,64.90
2017-12-02T08:53:32.636Z,50.80
2017-12-02T08:54:32.610Z,59.70
2017-12-02T08:55:32.583Z,82.10
2017-12-02T08:56:32.560Z,68.20
2017-12-02T08:57:32.536Z,69.60
2017-12-02T08:58:32.513Z,103.70
2017-12-02T08:59:32.489Z,92.30
2017-12-02T09:00:32.471Z,66.40
2017-12-02T09:01:32.457Z,81.60
2017-12-02T09:02:32.426Z,65.40
2017-12-02T09:03:32.396Z,75.50
2017-12-02T09:04:32.435Z,59.20
2017-12-02T09:05:32.349Z,62.10
2017-12-02T09:06:32.326Z,54.40
2017-12-02T09:07:32.301Z,60.70
2017-12-02T09:08:32.275Z,48.20
2017-12-02T09:09:32.256Z,49.80
2017-12-02T09:10:32.237Z,57.60
2017-12-02T09:11:32.206Z,57.30
2017-12-02T09:12:32.185Z,59.10
2017-12-02T09:13:32.165Z,61.60
2017-12-02T09:14:32.135Z,102.20
2017-12-02T09:15:32.118Z,77.60
2017-12-02T09:16:32.087Z,61.40
2017-12-02T09:17:32.061Z,59.20
2017-12-02T09:18:32.043Z,55.50
2017-12-02T09:19:32.015Z,60.50
2017-12-02T09:20:31.999Z,68.50
2017-12-02T09:21:31.968Z,54.60
2017-12-02T09:22:31.950Z,56.40
2017-12-02T09:23:31.926Z,53.50
2017-12-02T09:24:31.899Z,57.20
2017-12-02T09:25:31.878Z,49.90
2017-12-02T09:26:31.852Z,58.70
2017-12-02T09:27:31.825Z,54.90
2017-12-02T09:28:31.805Z,48.90
2017-12-02T09:29:31.776Z,57.80
2017-12-02T09:30:31.756Z,43.30
2017-12-02T09:31:31.731Z,39.70
2017-12-02T09:32:31.706Z,37.10
2017-12-02T09:33:31.687Z,46.50
2017-12-02T09:34:31.664Z,41.50
2017-12-02T09:35:31.635Z,42.30
2017-12-02T09:36:31.609Z,44.40
2017-12-02T09:37:31.592Z,47.40
2017-12-02T09:38:31.566Z,41.10
2017-12-02T09:39:31.541Z,39.80
2017-12-02T09:40:31.517Z,40.20
2017-12-02T09:41:31.489Z,40.50
2017-12-02T09:42:31.473Z,42.00
2017-12-02T09:43:31.449Z,40.20
2017-12-02T09:44:31.430Z,42.30
2017-12-02T09:45:31.404Z,49.20
2017-12-02T09:46:31.374Z,38.30
2017-12-02T09:47:31.363Z,43.80
2017-12-02T09:48:31.331Z,48.50
2017-12-02T09:49:31.302Z,43.70
2017-12-02T09:50:31.286Z,41.60
2017-12-02T09:51:31.255Z,41.30
2017-12-02T09:52:31.234Z,43.10
2017-12-02T09:53:31.214Z,43.00
2017-12-02T09:54:31.182Z,50.10
2017-12-02T09:55:31.164Z,55.40
2017-12-02T09:56:31.137Z,46.00
2017-12-02T09:57:31.114Z,41.60
2017-12-02T09:58:31.093Z,46.10
2017-12-02T09:59:31.071Z,45.80
2017-12-02T10:00:31.043Z,47.70
2017-12-02T10:01:31.019Z,44.20
2017-12-02T10:02:30.997Z,64.70
2017-12-02T10:03:30.972Z,53.30
2017-12-02T10:04:30.963Z,66.30
2017-12-02T10:05:30.924Z,64.20
2017-12-02T10:06:30.900Z,60.00
2017-12-02T10:07:30.873Z,50.00
2017-12-02T10:08:30.855Z,54.40
2017-12-02T10:09:30.834Z,46.40
2017-12-02T10:10:30.803Z,44.60
2017-12-02T10:11:30.783Z,39.10
2017-12-02T10:12:30.761Z,44.10
2017-12-02T10:13:30.735Z,36.60
2017-12-02T10:14:30.708Z,43.70
2017-12-02T10:15:30.691Z,42.90
2017-12-02T10:16:30.658Z,39.90
2017-12-02T10:17:30.640Z,43.50
2017-12-02T10:18:30.614Z,48.30
2017-12-02T10:19:30.595Z,47.30
2017-12-02T10:20:30.571Z,42.80
2017-12-02T10:21:30.547Z,43.00
2017-12-02T10:22:30.526Z,42.30
2017-12-02T10:23:30.494Z,45.40
2017-12-02T10:24:30.472Z,49.60
2017-12-02T10:25:30.464Z,49.90
2017-12-02T10:26:30.424Z,49.90
2017-12-02T10:27:30.402Z,45.10
2017-12-02T10:28:30.375Z,48.70
2017-12-02T10:29:30.354Z,47.00
2017-12-02T10:30:30.330Z,49.70
2017-12-02T10:31:30.313Z,48.50
2017-12-02T10:32:30.284Z,54.60
2017-12-02T10:33:30.258Z,49.80
2017-12-02T10:34:30.234Z,49.00
2017-12-02T10:35:30.206Z,46.80
2017-12-02T10:36:30.192Z,49.20
2017-12-02T10:37:30.167Z,48.30
2017-12-02T10:38:30.148Z,45.50
2017-12-02T10:39:30.111Z,46.90
2017-12-02T10:40:30.100Z,45.00
2017-12-02T10:41:30.065Z,47.00
2017-12-02T10:42:30.043Z,48.20
2017-12-02T10:43:30.025Z,48.50
2017-12-02T10:44:29.997Z,44.10
2017-12-02T10:45:29.983Z,48.00
2017-12-02T10:46:29.945Z,57.50
2017-12-02T10:47:29.933Z,50.20
2017-12-02T10:48:29.905Z,47.30
2017-12-02T10:49:29.878Z,43.80
2017-12-02T10:50:29.851Z,41.50
2017-12-02T10:51:29.829Z,52.60
2017-12-02T10:52:29.804Z,45.20
2017-12-02T10:53:29.784Z,48.10
2017-12-02T10:54:29.762Z,43.00
2017-12-02T10:55:29.733Z,49.30
2017-12-02T10:56:29.708Z,39.70
2017-12-02T10:57:29.685Z,41.60
2017-12-02T10:58:29.666Z,41.80
2017-12-02T10:59:29.641Z,44.20
2017-12-02T11:00:29.618Z,42.70
2017-12-02T11:01:29.602Z,41.50
2017-12-02T11:02:29.567Z,41.00
2017-12-02T11:03:29.548Z,37.10
2017-12-02T11:04:29.522Z,38.20
2017-12-02T11:05:29.495Z,57.80
2017-12-02T11:06:29.474Z,44.00
2017-12-02T11:07:29.446Z,47.80
2017-12-02T11:08:29.436Z,40.90
2017-12-02T11:09:29.394Z,46.40
2017-12-02T11:10:29.377Z,42.90
2017-12-02T11:11:29.355Z,38.10
2017-12-02T11:12:29.326Z,41.30
2017-12-02T11:13:29.299Z,42.00
2017-12-02T11:14:29.284Z,41.20
2017-12-02T11:15:29.261Z,42.30
2017-12-02T11:16:29.233Z,40.90
2017-12-02T11:17:29.204Z,41.80
2017-12-02T11:18:29.185Z,45.60
2017-12-02T11:19:29.165Z,45.20
2017-12-02T11:20:29.151Z,41.50
2017-12-02T11:21:29.152Z,41.50
2017-12-02T11:22:29.090Z,52.00
2017-12-02T11:23:29.061Z,48.60
2017-12-02T11:24:29.040Z,46.00
2017-12-02T11:25:29.014Z,47.00
2017-12-02T11:26:29.003Z,55.20
2017-12-02T11:27:28.979Z,45.90
2017-12-02T11:28:28.945Z,44.10
2017-12-02T11:29:28.924Z,46.70
2017-12-02T11:30:28.895Z,47.50
2017-12-02T11:31:28.871Z,50.30
2017-12-02T11:32:28.860Z,53.60
2017-12-02T11:33:28.835Z,58.70
2017-12-02T11:34:28.806Z,60.90
2017-12-02T11:35:28.778Z,48.20
2017-12-02T11:36:28.758Z,47.40
2017-12-02T11:37:28.732Z,50.70
2017-12-02T11:38:28.711Z,52.00
2017-12-02T11:39:28.681Z,56.30
2017-12-02T11:40:28.668Z,61.40
2017-12-02T11:41:28.641Z,58.50
2017-12-02T11:42:28.639Z,60.90
2017-12-02T11:43:28.590Z,58.10
2017-12-02T11:44:28.577Z,57.00
2017-12-02T11:45:28.545Z,49.40
2017-12-02T11:46:28.522Z,56.30
2017-12-02T11:47:28.494Z,52.30
2017-12-02T11:48:28.469Z,58.30
2017-12-02T11:49:28.445Z,55.00
2017-12-02T11:50:28.425Z,58.10
2017-12-02T11:51:28.395Z,55.70
2017-12-02T11:52:28.378Z,50.70
2017-12-02T11:53:28.357Z,52.20
2017-12-02T11:54:28.333Z,59.60
2017-12-02T11:55:28.307Z,49.00
2017-12-02T11:56:28.285Z,47.90
2017-12-02T11:57:28.256Z,57.60
2017-12-02T11:58:28.242Z,53.90
2017-12-02T11:59:28.215Z,59.30
2017-12-02T12:00:28.185Z,62.50
2017-12-02T12:01:28.165Z,54.70
2017-12-02T12:02:28.141Z,56.50
2017-12-02T12:03:28.115Z,50.70
2017-12-02T12:04:28.094Z,44.60
2017-12-02T12:05:28.076Z,46.40
2017-12-02T12:06:28.052Z,46.50
2017-12-02T12:07:28.023Z,44.20
2017-12-02T12:08:27.995Z,43.70
2017-12-02T12:09:27.977Z,47.90
2017-12-02T12:10:27.943Z,48.70
2017-12-02T12:11:27.922Z,48.40
2017-12-02T12:12:27.903Z,43.80
2017-12-02T12:13:27.878Z,47.30
2017-12-02T12:14:27.858Z,44.90
2017-12-02T12:15:27.829Z,48.80
2017-12-02T12:16:27.803Z,47.80
2017-12-02T12:17:27.778Z,58.40
2017-12-02T12:18:27.766Z,57.80
2017-12-02T12:19:27.734Z,56.90
2017-12-02T12:20:27.716Z,59.80
2017-12-02T12:21:27.686Z,54.60
2017-12-02T12:22:27.666Z,55.20
2017-12-02T12:23:27.634Z,48.00
2017-12-02T12:24:27.611Z,47.70
2017-12-02T12:25:27.591Z,50.90
2017-12-02T12:26:27.564Z,55.00
2017-12-02T12:27:27.539Z,49.40
2017-12-02T12:28:27.527Z,45.30
2017-12-02T12:29:27.499Z,50.40
2017-12-02T12:30:27.479Z,52.40
2017-12-02T12:31:27.456Z,47.60
2017-12-02T12:32:27.422Z,49.60
2017-12-02T12:33:27.399Z,49.70
2017-12-02T12:34:27.375Z,54.60
2017-12-02T12:35:27.351Z,49.00
2017-12-02T12:36:27.330Z,46.80
2017-12-02T12:37:27.306Z,48.60
2017-12-02T12:38:27.287Z,48.00
2017-12-02T12:39:27.260Z,46.50
2017-12-02T12:40:27.235Z,46.10
2017-12-02T12:41:27.216Z,46.60
2017-12-02T12:42:27.188Z,45.10
2017-12-02T12:43:27.164Z,45.30
2017-12-02T12:44:27.139Z,46.80
2017-12-02T12:45:27.115Z,44.40
2017-12-02T12:46:27.094Z,45.40
2017-12-02T12:47:27.069Z,52.20